sensor_id;sensor_type;location;lat;lon;timestamp;P1;durP1;ratioP1;P2;durP2;ratioP2
33152;SDS011;19509;43.862;26.176;2022-12-24T00:00:31;6.37;;;6.07;;
33152;SDS011;19509;43.862;26.176;2022-12-24T00:02:57;6.00;;;5.70;;
33152;SDS011;19509;43.862;26.176;2022-12-24T00:05:23;6.07;;;5.87;;
33152;SDS011;19509;43.862;26.176;2022-12-24T00:07:49;5.90;;;5.60;;
33152;SDS011;19509;43.862;26.176;2022-12-24T00:10:14;5.50;;;5.30;;
33152;SDS011;19509;43.862;26.176;2022-12-24T00:12:40;5.73;;;5.53;;
33152;SDS011;19509;43.862;26.176;2022-12-24T00:15:05;5.53;;;5.33;;
33152;SDS011;19509;43.862;26.176;2022-12-24T00:17:31;5.80;;;5.60;;
33152;SDS011;19509;43.862;26.176;2022-12-24T00:19:57;5.80;;;5.60;;
33152;SDS011;19509;43.862;26.176;2022-12-24T00:22:22;5.67;;;5.47;;
33152;SDS011;19509;43.862;26.176;2022-12-24T00:24:48;5.70;;;5.50;;
33152;SDS011;19509;43.862;26.176;2022-12-24T00:27:13;5.77;;;5.47;;
33152;SDS011;19509;43.862;26.176;2022-12-24T00:29:39;5.60;;;5.40;;
33152;SDS011;19509;43.862;26.176;2022-12-24T00:32:04;5.77;;;5.57;;
33152;SDS011;19509;43.862;26.176;2022-12-24T00:34:34;6.00;;;5.80;;
33152;SDS011;19509;43.862;26.176;2022-12-24T00:37:02;5.20;;;5.00;;
33152;SDS011;19509;43.862;26.176;2022-12-24T00:39:28;5.40;;;5.20;;
33152;SDS011;19509;43.862;26.176;2022-12-24T00:41:53;5.50;;;5.30;;
33152;SDS011;19509;43.862;26.176;2022-12-24T00:44:18;5.50;;;5.30;;
33152;SDS011;19509;43.862;26.176;2022-12-24T00:46:44;5.77;;;5.47;;
33152;SDS011;19509;43.862;26.176;2022-12-24T00:49:09;5.67;;;5.37;;
33152;SDS011;19509;43.862;26.176;2022-12-24T00:51:36;5.80;;;5.60;;
33152;SDS011;19509;43.862;26.176;2022-12-24T00:54:02;5.70;;;5.50;;
33152;SDS011;19509;43.862;26.176;2022-12-24T00:56:28;5.90;;;5.70;;
33152;SDS011;19509;43.862;26.176;2022-12-24T00:58:53;5.77;;;5.57;;
33152;SDS011;19509;43.862;26.176;2022-12-24T01:01:19;5.53;;;5.33;;
33152;SDS011;19509;43.862;26.176;2022-12-24T01:03:45;5.50;;;5.30;;
33152;SDS011;19509;43.862;26.176;2022-12-24T01:06:13;5.53;;;5.33;;
33152;SDS011;19509;43.862;26.176;2022-12-24T01:08:40;5.47;;;5.27;;
33152;SDS011;19509;43.862;26.176;2022-12-24T01:11:07;5.80;;;5.50;;
33152;SDS011;19509;43.862;26.176;2022-12-24T01:13:33;6.00;;;5.70;;
33152;SDS011;19509;43.862;26.176;2022-12-24T01:15:59;5.87;;;5.67;;
33152;SDS011;19509;43.862;26.176;2022-12-24T01:18:25;5.30;;;5.10;;
33152;SDS011;19509;43.862;26.176;2022-12-24T01:20:55;5.20;;;5.00;;
33152;SDS011;19509;43.862;26.176;2022-12-24T01:23:24;5.60;;;5.40;;
33152;SDS011;19509;43.862;26.176;2022-12-24T01:25:50;5.30;;;5.10;;
33152;SDS011;19509;43.862;26.176;2022-12-24T01:28:16;5.00;;;4.80;;
33152;SDS011;19509;43.862;26.176;2022-12-24T01:30:42;5.17;;;5.00;;
33152;SDS011;19509;43.862;26.176;2022-12-24T01:33:08;5.30;;;5.10;;
33152;SDS011;19509;43.862;26.176;2022-12-24T01:35:34;5.00;;;4.80;;
33152;SDS011;19509;43.862;26.176;2022-12-24T01:38:02;5.17;;;4.97;;
33152;SDS011;19509;43.862;26.176;2022-12-24T01:40:28;5.50;;;5.20;;
33152;SDS011;19509;43.862;26.176;2022-12-24T01:43:21;4.70;;;4.60;;
33152;SDS011;19509;43.862;26.176;2022-12-24T01:45:48;5.30;;;5.10;;
33152;SDS011;19509;43.862;26.176;2022-12-24T01:48:32;5.03;;;4.83;;
33152;SDS011;19509;43.862;26.176;2022-12-24T01:51:10;4.53;;;4.43;;
33152;SDS011;19509;43.862;26.176;2022-12-24T01:54:01;4.40;;;4.30;;
33152;SDS011;19509;43.862;26.176;2022-12-24T01:56:34;5.07;;;4.87;;
33152;SDS011;19509;43.862;26.176;2022-12-24T01:59:04;5.10;;;4.80;;
33152;SDS011;19509;43.862;26.176;2022-12-24T02:01:32;5.50;;;5.20;;
33152;SDS011;19509;43.862;26.176;2022-12-24T02:03:58;4.97;;;4.77;;
33152;SDS011;19509;43.862;26.176;2022-12-24T02:06:25;5.23;;;5.03;;
33152;SDS011;19509;43.862;26.176;2022-12-24T02:08:51;5.17;;;4.97;;
33152;SDS011;19509;43.862;26.176;2022-12-24T02:11:18;4.60;;;4.50;;
33152;SDS011;19509;43.862;26.176;2022-12-24T02:13:46;4.23;;;4.13;;
33152;SDS011;19509;43.862;26.176;2022-12-24T02:16:37;4.50;;;4.40;;
33152;SDS011;19509;43.862;26.176;2022-12-24T02:22:00;4.80;;;4.60;;
33152;SDS011;19509;43.862;26.176;2022-12-24T02:27:31;4.70;;;4.50;;
33152;SDS011;19509;43.862;26.176;2022-12-24T02:30:09;4.47;;;4.30;;
33152;SDS011;19509;43.862;26.176;2022-12-24T02:35:19;4.53;;;4.37;;
33152;SDS011;19509;43.862;26.176;2022-12-24T02:37:54;4.50;;;4.40;;
33152;SDS011;19509;43.862;26.176;2022-12-24T02:40:26;4.80;;;4.60;;
33152;SDS011;19509;43.862;26.176;2022-12-24T02:42:57;4.37;;;4.27;;
33152;SDS011;19509;43.862;26.176;2022-12-24T02:45:28;4.47;;;4.27;;
33152;SDS011;19509;43.862;26.176;2022-12-24T02:47:55;5.13;;;4.93;;
33152;SDS011;19509;43.862;26.176;2022-12-24T02:50:21;4.50;;;4.40;;
33152;SDS011;19509;43.862;26.176;2022-12-24T02:52:48;4.50;;;4.30;;
33152;SDS011;19509;43.862;26.176;2022-12-24T02:55:20;4.47;;;4.27;;
33152;SDS011;19509;43.862;26.176;2022-12-24T03:09:10;5.43;;;5.23;;
33152;SDS011;19509;43.862;26.176;2022-12-24T03:11:43;5.90;;;5.70;;
33152;SDS011;19509;43.862;26.176;2022-12-24T03:14:15;4.37;;;4.27;;
33152;SDS011;19509;43.862;26.176;2022-12-24T03:16:42;4.37;;;4.27;;
33152;SDS011;19509;43.862;26.176;2022-12-24T03:19:09;4.10;;;4.00;;
33152;SDS011;19509;43.862;26.176;2022-12-24T03:21:35;4.07;;;3.97;;
33152;SDS011;19509;43.862;26.176;2022-12-24T03:24:03;4.07;;;3.97;;
33152;SDS011;19509;43.862;26.176;2022-12-24T03:26:29;3.90;;;3.80;;
33152;SDS011;19509;43.862;26.176;2022-12-24T03:28:56;4.20;;;4.10;;
33152;SDS011;19509;43.862;26.176;2022-12-24T03:31:22;4.30;;;4.20;;
33152;SDS011;19509;43.862;26.176;2022-12-24T03:33:48;4.40;;;4.20;;
33152;SDS011;19509;43.862;26.176;2022-12-24T03:36:13;4.57;;;4.47;;
33152;SDS011;19509;43.862;26.176;2022-12-24T03:38:39;4.43;;;4.33;;
33152;SDS011;19509;43.862;26.176;2022-12-24T03:41:05;3.70;;;3.60;;
33152;SDS011;19509;43.862;26.176;2022-12-24T03:43:31;4.33;;;4.23;;
33152;SDS011;19509;43.862;26.176;2022-12-24T03:45:56;5.57;;;5.37;;
33152;SDS011;19509;43.862;26.176;2022-12-24T03:48:22;4.03;;;3.93;;
33152;SDS011;19509;43.862;26.176;2022-12-24T03:50:47;4.37;;;4.17;;
33152;SDS011;19509;43.862;26.176;2022-12-24T03:53:12;4.00;;;3.90;;
33152;SDS011;19509;43.862;26.176;2022-12-24T03:55:38;4.90;;;4.70;;
33152;SDS011;19509;43.862;26.176;2022-12-24T03:58:03;5.13;;;4.93;;
33152;SDS011;19509;43.862;26.176;2022-12-24T04:00:29;4.67;;;4.47;;
33152;SDS011;19509;43.862;26.176;2022-12-24T04:02:55;5.07;;;4.87;;
33152;SDS011;19509;43.862;26.176;2022-12-24T04:05:20;5.47;;;5.13;;
33152;SDS011;19509;43.862;26.176;2022-12-24T04:07:46;4.70;;;4.50;;
33152;SDS011;19509;43.862;26.176;2022-12-24T04:10:12;5.43;;;5.13;;
33152;SDS011;19509;43.862;26.176;2022-12-24T04:12:39;6.60;;;6.10;;
33152;SDS011;19509;43.862;26.176;2022-12-24T04:15:05;4.90;;;4.70;;
33152;SDS011;19509;43.862;26.176;2022-12-24T04:17:31;12.83;;;11.73;;
33152;SDS011;19509;43.862;26.176;2022-12-24T04:19:57;7.90;;;7.40;;
33152;SDS011;19509;43.862;26.176;2022-12-24T04:22:22;5.70;;;5.50;;
33152;SDS011;19509;43.862;26.176;2022-12-24T04:24:48;5.53;;;5.30;;
33152;SDS011;19509;43.862;26.176;2022-12-24T04:27:13;6.10;;;5.80;;
33152;SDS011;19509;43.862;26.176;2022-12-24T04:29:39;6.20;;;5.87;;
33152;SDS011;19509;43.862;26.176;2022-12-24T04:32:04;6.03;;;5.73;;
33152;SDS011;19509;43.862;26.176;2022-12-24T04:34:30;5.63;;;5.43;;
33152;SDS011;19509;43.862;26.176;2022-12-24T04:36:55;5.73;;;5.53;;
33152;SDS011;19509;43.862;26.176;2022-12-24T04:39:21;5.90;;;5.70;;
33152;SDS011;19509;43.862;26.176;2022-12-24T04:41:46;7.77;;;7.37;;
33152;SDS011;19509;43.862;26.176;2022-12-24T04:44:12;7.00;;;6.60;;
33152;SDS011;19509;43.862;26.176;2022-12-24T04:46:37;11.27;;;10.57;;
33152;SDS011;19509;43.862;26.176;2022-12-24T04:49:03;8.37;;;7.87;;
33152;SDS011;19509;43.862;26.176;2022-12-24T04:51:28;6.60;;;6.30;;
33152;SDS011;19509;43.862;26.176;2022-12-24T04:53:54;6.07;;;5.80;;
33152;SDS011;19509;43.862;26.176;2022-12-24T04:56:21;5.70;;;5.50;;
33152;SDS011;19509;43.862;26.176;2022-12-24T04:58:48;5.47;;;5.27;;
33152;SDS011;19509;43.862;26.176;2022-12-24T05:01:16;5.73;;;5.47;;
33152;SDS011;19509;43.862;26.176;2022-12-24T05:03:44;6.43;;;6.13;;
33152;SDS011;19509;43.862;26.176;2022-12-24T05:06:11;6.20;;;5.90;;
33152;SDS011;19509;43.862;26.176;2022-12-24T05:08:38;6.23;;;6.03;;
33152;SDS011;19509;43.862;26.176;2022-12-24T05:11:03;5.80;;;5.60;;
33152;SDS011;19509;43.862;26.176;2022-12-24T05:13:29;5.20;;;5.00;;
33152;SDS011;19509;43.862;26.176;2022-12-24T05:15:55;4.70;;;4.50;;
33152;SDS011;19509;43.862;26.176;2022-12-24T05:18:21;4.83;;;4.63;;
33152;SDS011;19509;43.862;26.176;2022-12-24T05:20:47;4.87;;;4.67;;
33152;SDS011;19509;43.862;26.176;2022-12-24T05:23:20;3.73;;;3.63;;
33152;SDS011;19509;43.862;26.176;2022-12-24T05:26:16;4.00;;;3.90;;
33152;SDS011;19509;43.862;26.176;2022-12-24T05:28:46;5.53;;;5.30;;
33152;SDS011;19509;43.862;26.176;2022-12-24T05:31:15;6.37;;;6.07;;
33152;SDS011;19509;43.862;26.176;2022-12-24T05:33:41;5.30;;;5.10;;
33152;SDS011;19509;43.862;26.176;2022-12-24T05:36:06;5.70;;;5.50;;
33152;SDS011;19509;43.862;26.176;2022-12-24T05:38:33;5.30;;;5.10;;
33152;SDS011;19509;43.862;26.176;2022-12-24T05:40:58;4.10;;;4.00;;
33152;SDS011;19509;43.862;26.176;2022-12-24T05:43:24;4.20;;;4.10;;
33152;SDS011;19509;43.862;26.176;2022-12-24T05:45:50;4.10;;;3.90;;
33152;SDS011;19509;43.862;26.176;2022-12-24T05:48:15;3.93;;;3.83;;
33152;SDS011;19509;43.862;26.176;2022-12-24T05:50:40;3.83;;;3.73;;
33152;SDS011;19509;43.862;26.176;2022-12-24T05:53:06;4.03;;;3.93;;
33152;SDS011;19509;43.862;26.176;2022-12-24T05:55:31;3.83;;;3.73;;
33152;SDS011;19509;43.862;26.176;2022-12-24T05:57:58;3.50;;;3.40;;
33152;SDS011;19509;43.862;26.176;2022-12-24T06:00:23;3.80;;;3.70;;
33152;SDS011;19509;43.862;26.176;2022-12-24T06:02:52;3.77;;;3.67;;
33152;SDS011;19509;43.862;26.176;2022-12-24T06:05:17;3.93;;;3.83;;
33152;SDS011;19509;43.862;26.176;2022-12-24T06:07:43;3.70;;;3.60;;
33152;SDS011;19509;43.862;26.176;2022-12-24T06:10:08;3.90;;;3.80;;
33152;SDS011;19509;43.862;26.176;2022-12-24T06:12:34;3.80;;;3.70;;
33152;SDS011;19509;43.862;26.176;2022-12-24T06:14:59;3.33;;;3.23;;
33152;SDS011;19509;43.862;26.176;2022-12-24T06:17:25;3.50;;;3.40;;
33152;SDS011;19509;43.862;26.176;2022-12-24T06:19:50;3.30;;;3.20;;
33152;SDS011;19509;43.862;26.176;2022-12-24T06:22:16;3.90;;;3.80;;
33152;SDS011;19509;43.862;26.176;2022-12-24T06:24:41;3.40;;;3.30;;
33152;SDS011;19509;43.862;26.176;2022-12-24T06:27:07;3.77;;;3.67;;
33152;SDS011;19509;43.862;26.176;2022-12-24T06:29:32;3.53;;;3.43;;
33152;SDS011;19509;43.862;26.176;2022-12-24T06:31:58;3.60;;;3.50;;
33152;SDS011;19509;43.862;26.176;2022-12-24T06:34:23;3.30;;;3.20;;
33152;SDS011;19509;43.862;26.176;2022-12-24T06:36:49;3.30;;;3.20;;
33152;SDS011;19509;43.862;26.176;2022-12-24T06:39:14;3.20;;;3.10;;
33152;SDS011;19509;43.862;26.176;2022-12-24T06:41:40;3.23;;;3.20;;
33152;SDS011;19509;43.862;26.176;2022-12-24T06:44:05;3.67;;;3.57;;
33152;SDS011;19509;43.862;26.176;2022-12-24T06:46:30;3.13;;;3.10;;
33152;SDS011;19509;43.862;26.176;2022-12-24T06:48:56;3.50;;;3.40;;
33152;SDS011;19509;43.862;26.176;2022-12-24T06:51:21;3.60;;;3.50;;
33152;SDS011;19509;43.862;26.176;2022-12-24T06:53:47;3.70;;;3.60;;
33152;SDS011;19509;43.862;26.176;2022-12-24T06:56:16;3.03;;;3.00;;
33152;SDS011;19509;43.862;26.176;2022-12-24T06:58:43;3.70;;;3.50;;
33152;SDS011;19509;43.862;26.176;2022-12-24T07:01:10;3.57;;;3.47;;
33152;SDS011;19509;43.862;26.176;2022-12-24T07:03:37;6.13;;;5.93;;
33152;SDS011;19509;43.862;26.176;2022-12-24T07:06:02;4.70;;;4.60;;
33152;SDS011;19509;43.862;26.176;2022-12-24T07:08:28;4.00;;;3.90;;
33152;SDS011;19509;43.862;26.176;2022-12-24T07:10:57;3.83;;;3.73;;
33152;SDS011;19509;43.862;26.176;2022-12-24T07:13:23;3.40;;;3.30;;
33152;SDS011;19509;43.862;26.176;2022-12-24T07:15:55;2.87;;;2.87;;
33152;SDS011;19509;43.862;26.176;2022-12-24T07:18:24;3.03;;;2.93;;
33152;SDS011;19509;43.862;26.176;2022-12-24T07:20:50;4.07;;;3.97;;
33152;SDS011;19509;43.862;26.176;2022-12-24T07:23:15;4.10;;;4.00;;
33152;SDS011;19509;43.862;26.176;2022-12-24T07:25:41;2.40;;;2.40;;
33152;SDS011;19509;43.862;26.176;2022-12-24T07:28:07;2.33;;;2.33;;
33152;SDS011;19509;43.862;26.176;2022-12-24T07:30:33;4.37;;;4.27;;
33152;SDS011;19509;43.862;26.176;2022-12-24T07:32:58;3.67;;;3.57;;
33152;SDS011;19509;43.862;26.176;2022-12-24T07:35:24;2.73;;;2.73;;
33152;SDS011;19509;43.862;26.176;2022-12-24T07:37:49;3.40;;;3.30;;
33152;SDS011;19509;43.862;26.176;2022-12-24T07:40:15;3.57;;;3.47;;
33152;SDS011;19509;43.862;26.176;2022-12-24T07:42:40;4.00;;;3.90;;
33152;SDS011;19509;43.862;26.176;2022-12-24T07:45:06;2.33;;;2.33;;
33152;SDS011;19509;43.862;26.176;2022-12-24T07:47:31;2.53;;;2.53;;
33152;SDS011;19509;43.862;26.176;2022-12-24T07:49:58;2.20;;;2.20;;
33152;SDS011;19509;43.862;26.176;2022-12-24T07:52:23;3.00;;;3.00;;
33152;SDS011;19509;43.862;26.176;2022-12-24T07:54:49;2.60;;;2.60;;
33152;SDS011;19509;43.862;26.176;2022-12-24T07:57:14;2.30;;;2.30;;
33152;SDS011;19509;43.862;26.176;2022-12-24T07:59:39;2.30;;;2.30;;
33152;SDS011;19509;43.862;26.176;2022-12-24T08:02:05;2.80;;;2.80;;
33152;SDS011;19509;43.862;26.176;2022-12-24T08:04:30;2.50;;;2.50;;
33152;SDS011;19509;43.862;26.176;2022-12-24T08:06:57;2.60;;;2.60;;
33152;SDS011;19509;43.862;26.176;2022-12-24T08:09:22;3.20;;;3.10;;
33152;SDS011;19509;43.862;26.176;2022-12-24T08:11:48;2.73;;;2.73;;
33152;SDS011;19509;43.862;26.176;2022-12-24T08:14:13;3.40;;;3.30;;
33152;SDS011;19509;43.862;26.176;2022-12-24T08:16:39;3.50;;;3.40;;
33152;SDS011;19509;43.862;26.176;2022-12-24T08:19:04;3.70;;;3.60;;
33152;SDS011;19509;43.862;26.176;2022-12-24T08:21:30;3.50;;;3.40;;
33152;SDS011;19509;43.862;26.176;2022-12-24T08:23:55;3.57;;;3.47;;
33152;SDS011;19509;43.862;26.176;2022-12-24T08:26:20;3.90;;;3.80;;
33152;SDS011;19509;43.862;26.176;2022-12-24T08:28:46;3.70;;;3.60;;
33152;SDS011;19509;43.862;26.176;2022-12-24T08:31:11;3.80;;;3.70;;
33152;SDS011;19509;43.862;26.176;2022-12-24T08:33:37;3.60;;;3.50;;
33152;SDS011;19509;43.862;26.176;2022-12-24T08:36:02;3.20;;;3.20;;
33152;SDS011;19509;43.862;26.176;2022-12-24T08:38:28;4.07;;;3.97;;
33152;SDS011;19509;43.862;26.176;2022-12-24T08:40:54;3.47;;;3.37;;
33152;SDS011;19509;43.862;26.176;2022-12-24T08:43:19;3.60;;;3.50;;
33152;SDS011;19509;43.862;26.176;2022-12-24T08:45:46;3.73;;;3.63;;
33152;SDS011;19509;43.862;26.176;2022-12-24T08:48:13;3.30;;;3.20;;
33152;SDS011;19509;43.862;26.176;2022-12-24T08:50:39;2.90;;;2.90;;
33152;SDS011;19509;43.862;26.176;2022-12-24T08:53:05;2.43;;;2.43;;
33152;SDS011;19509;43.862;26.176;2022-12-24T08:55:31;4.23;;;4.13;;
33152;SDS011;19509;43.862;26.176;2022-12-24T08:57:56;2.90;;;2.90;;
33152;SDS011;19509;43.862;26.176;2022-12-24T09:00:22;2.80;;;2.80;;
33152;SDS011;19509;43.862;26.176;2022-12-24T09:02:47;2.00;;;2.00;;
33152;SDS011;19509;43.862;26.176;2022-12-24T09:18:13;2.00;;;2.00;;
33152;SDS011;19509;43.862;26.176;2022-12-24T09:20:39;1.80;;;1.80;;
33152;SDS011;19509;43.862;26.176;2022-12-24T09:23:04;1.87;;;1.87;;
33152;SDS011;19509;43.862;26.176;2022-12-24T09:25:30;1.70;;;1.70;;
33152;SDS011;19509;43.862;26.176;2022-12-24T09:27:55;1.90;;;1.90;;
33152;SDS011;19509;43.862;26.176;2022-12-24T09:30:20;2.03;;;2.03;;
33152;SDS011;19509;43.862;26.176;2022-12-24T09:32:46;2.30;;;2.30;;
33152;SDS011;19509;43.862;26.176;2022-12-24T09:35:11;2.20;;;2.20;;
33152;SDS011;19509;43.862;26.176;2022-12-24T09:37:37;2.03;;;2.03;;
33152;SDS011;19509;43.862;26.176;2022-12-24T09:40:02;2.30;;;2.30;;
33152;SDS011;19509;43.862;26.176;2022-12-24T09:42:47;2.30;;;2.30;;
33152;SDS011;19509;43.862;26.176;2022-12-24T09:45:19;2.40;;;2.40;;
33152;SDS011;19509;43.862;26.176;2022-12-24T09:47:56;2.30;;;2.30;;
33152;SDS011;19509;43.862;26.176;2022-12-24T09:53:20;2.40;;;2.40;;
33152;SDS011;19509;43.862;26.176;2022-12-24T09:56:12;3.10;;;3.10;;
33152;SDS011;19509;43.862;26.176;2022-12-24T09:58:45;8.87;;;8.57;;
33152;SDS011;19509;43.862;26.176;2022-12-24T10:01:14;8.33;;;8.13;;
33152;SDS011;19509;43.862;26.176;2022-12-24T10:03:41;2.70;;;2.70;;
33152;SDS011;19509;43.862;26.176;2022-12-24T10:06:09;11.87;;;11.47;;
33152;SDS011;19509;43.862;26.176;2022-12-24T10:17:12;1.10;;;1.10;;
33152;SDS011;19509;43.862;26.176;2022-12-24T10:19:53;1.00;;;1.00;;
33152;SDS011;19509;43.862;26.176;2022-12-24T10:22:37;1.20;;;1.20;;
33152;SDS011;19509;43.862;26.176;2022-12-24T10:25:22;1.50;;;1.50;;
33152;SDS011;19509;43.862;26.176;2022-12-24T10:27:54;1.10;;;1.10;;
33152;SDS011;19509;43.862;26.176;2022-12-24T10:30:24;1.20;;;1.20;;
33152;SDS011;19509;43.862;26.176;2022-12-24T10:32:50;1.20;;;1.20;;
33152;SDS011;19509;43.862;26.176;2022-12-24T10:37:46;1.40;;;1.40;;
33152;SDS011;19509;43.862;26.176;2022-12-24T10:40:37;1.40;;;1.40;;
33152;SDS011;19509;43.862;26.176;2022-12-24T10:43:07;1.60;;;1.60;;
33152;SDS011;19509;43.862;26.176;2022-12-24T10:45:41;1.83;;;1.83;;
33152;SDS011;19509;43.862;26.176;2022-12-24T10:48:14;1.90;;;1.90;;
33152;SDS011;19509;43.862;26.176;2022-12-24T10:50:51;1.57;;;1.57;;
33152;SDS011;19509;43.862;26.176;2022-12-24T10:53:23;1.60;;;1.60;;
33152;SDS011;19509;43.862;26.176;2022-12-24T10:56:02;1.60;;;1.60;;
33152;SDS011;19509;43.862;26.176;2022-12-24T10:58:30;1.60;;;1.60;;
33152;SDS011;19509;43.862;26.176;2022-12-24T11:00:56;1.40;;;1.40;;
33152;SDS011;19509;43.862;26.176;2022-12-24T11:03:34;1.30;;;1.30;;
33152;SDS011;19509;43.862;26.176;2022-12-24T11:06:03;1.27;;;1.27;;
33152;SDS011;19509;43.862;26.176;2022-12-24T11:08:29;1.13;;;1.13;;
33152;SDS011;19509;43.862;26.176;2022-12-24T11:16:00;1.40;;;1.40;;
33152;SDS011;19509;43.862;26.176;2022-12-24T11:18:29;1.37;;;1.37;;
33152;SDS011;19509;43.862;26.176;2022-12-24T11:20:56;1.37;;;1.37;;
33152;SDS011;19509;43.862;26.176;2022-12-24T11:23:24;1.50;;;1.50;;
33152;SDS011;19509;43.862;26.176;2022-12-24T11:25:53;1.30;;;1.30;;
33152;SDS011;19509;43.862;26.176;2022-12-24T11:28:28;1.10;;;1.10;;
33152;SDS011;19509;43.862;26.176;2022-12-24T11:31:17;1.30;;;1.30;;
33152;SDS011;19509;43.862;26.176;2022-12-24T11:33:48;1.20;;;1.20;;
33152;SDS011;19509;43.862;26.176;2022-12-24T11:36:15;1.37;;;1.37;;
33152;SDS011;19509;43.862;26.176;2022-12-24T11:38:46;1.10;;;1.10;;
33152;SDS011;19509;43.862;26.176;2022-12-24T11:41:18;1.40;;;1.40;;
33152;SDS011;19509;43.862;26.176;2022-12-24T11:43:44;1.30;;;1.30;;
33152;SDS011;19509;43.862;26.176;2022-12-24T11:48:39;1.63;;;1.63;;
33152;SDS011;19509;43.862;26.176;2022-12-24T11:51:05;1.60;;;1.60;;
33152;SDS011;19509;43.862;26.176;2022-12-24T11:53:47;1.90;;;1.80;;
33152;SDS011;19509;43.862;26.176;2022-12-24T11:56:39;1.87;;;1.80;;
33152;SDS011;19509;43.862;26.176;2022-12-24T11:59:11;2.00;;;2.00;;
33152;SDS011;19509;43.862;26.176;2022-12-24T12:04:16;1.57;;;1.57;;
33152;SDS011;19509;43.862;26.176;2022-12-24T12:06:49;1.70;;;1.70;;
33152;SDS011;19509;43.862;26.176;2022-12-24T12:09:32;1.57;;;1.57;;
33152;SDS011;19509;43.862;26.176;2022-12-24T12:12:12;1.60;;;1.60;;
33152;SDS011;19509;43.862;26.176;2022-12-24T12:14:39;1.90;;;1.90;;
33152;SDS011;19509;43.862;26.176;2022-12-24T12:19:59;1.60;;;1.60;;
33152;SDS011;19509;43.862;26.176;2022-12-24T12:22:49;1.70;;;1.60;;
33152;SDS011;19509;43.862;26.176;2022-12-24T12:25:22;1.60;;;1.60;;
33152;SDS011;19509;43.862;26.176;2022-12-24T12:27:53;1.50;;;1.50;;
33152;SDS011;19509;43.862;26.176;2022-12-24T12:30:21;1.70;;;1.70;;
33152;SDS011;19509;43.862;26.176;2022-12-24T12:35:33;1.37;;;1.37;;
33152;SDS011;19509;43.862;26.176;2022-12-24T12:38:03;1.60;;;1.50;;
33152;SDS011;19509;43.862;26.176;2022-12-24T12:40:46;2.07;;;2.07;;
33152;SDS011;19509;43.862;26.176;2022-12-24T12:43:45;1.67;;;1.67;;
33152;SDS011;19509;43.862;26.176;2022-12-24T12:52:01;1.57;;;1.57;;
33152;SDS011;19509;43.862;26.176;2022-12-24T12:57:09;1.50;;;1.50;;
33152;SDS011;19509;43.862;26.176;2022-12-24T12:59:39;1.60;;;1.60;;
33152;SDS011;19509;43.862;26.176;2022-12-24T13:21:41;1.80;;;1.80;;
33152;SDS011;19509;43.862;26.176;2022-12-24T13:24:15;1.93;;;1.83;;
33152;SDS011;19509;43.862;26.176;2022-12-24T13:26:42;1.53;;;1.53;;
33152;SDS011;19509;43.862;26.176;2022-12-24T13:32:52;1.80;;;1.80;;
33152;SDS011;19509;43.862;26.176;2022-12-24T13:37:44;2.57;;;2.57;;
33152;SDS011;19509;43.862;26.176;2022-12-24T13:42:46;1.90;;;1.90;;
33152;SDS011;19509;43.862;26.176;2022-12-24T13:48:01;2.30;;;2.30;;
33152;SDS011;19509;43.862;26.176;2022-12-24T13:50:38;2.00;;;2.00;;
33152;SDS011;19509;43.862;26.176;2022-12-24T13:53:26;2.33;;;2.33;;
33152;SDS011;19509;43.862;26.176;2022-12-24T13:56:05;1.90;;;1.90;;
33152;SDS011;19509;43.862;26.176;2022-12-24T13:58:35;2.07;;;2.07;;
33152;SDS011;19509;43.862;26.176;2022-12-24T14:01:05;1.67;;;1.67;;
33152;SDS011;19509;43.862;26.176;2022-12-24T14:03:48;2.00;;;2.00;;
33152;SDS011;19509;43.862;26.176;2022-12-24T14:12:29;2.10;;;2.10;;
33152;SDS011;19509;43.862;26.176;2022-12-24T14:14:34;2.50;;;2.50;;
33152;SDS011;19509;43.862;26.176;2022-12-24T14:17:05;2.77;;;2.77;;
33152;SDS011;19509;43.862;26.176;2022-12-24T14:19:47;3.10;;;3.10;;
33152;SDS011;19509;43.862;26.176;2022-12-24T14:24:56;2.93;;;2.93;;
33152;SDS011;19509;43.862;26.176;2022-12-24T14:27:44;2.50;;;2.50;;
33152;SDS011;19509;43.862;26.176;2022-12-24T14:30:19;2.07;;;2.07;;
33152;SDS011;19509;43.862;26.176;2022-12-24T14:32:47;2.10;;;2.10;;
33152;SDS011;19509;43.862;26.176;2022-12-24T14:37:47;2.10;;;2.10;;
33152;SDS011;19509;43.862;26.176;2022-12-24T14:40:26;1.90;;;1.90;;
33152;SDS011;19509;43.862;26.176;2022-12-24T14:45:53;1.63;;;1.63;;
33152;SDS011;19509;43.862;26.176;2022-12-24T14:48:49;2.20;;;2.20;;
33152;SDS011;19509;43.862;26.176;2022-12-24T14:56:35;1.50;;;1.50;;
33152;SDS011;19509;43.862;26.176;2022-12-24T14:59:02;1.40;;;1.40;;
33152;SDS011;19509;43.862;26.176;2022-12-24T15:01:39;1.50;;;1.50;;
33152;SDS011;19509;43.862;26.176;2022-12-24T15:06:43;1.67;;;1.67;;
33152;SDS011;19509;43.862;26.176;2022-12-24T15:09:18;1.53;;;1.53;;
33152;SDS011;19509;43.862;26.176;2022-12-24T15:11:46;1.80;;;1.80;;
33152;SDS011;19509;43.862;26.176;2022-12-24T15:14:14;2.10;;;2.10;;
33152;SDS011;19509;43.862;26.176;2022-12-24T15:16:41;2.30;;;2.30;;
33152;SDS011;19509;43.862;26.176;2022-12-24T15:19:25;2.20;;;2.20;;
33152;SDS011;19509;43.862;26.176;2022-12-24T15:21:55;1.80;;;1.80;;
33152;SDS011;19509;43.862;26.176;2022-12-24T15:24:34;2.20;;;2.20;;
33152;SDS011;19509;43.862;26.176;2022-12-24T15:27:02;1.93;;;1.93;;
33152;SDS011;19509;43.862;26.176;2022-12-24T15:29:42;1.97;;;1.97;;
33152;SDS011;19509;43.862;26.176;2022-12-24T15:32:10;2.20;;;2.20;;
33152;SDS011;19509;43.862;26.176;2022-12-24T15:34:41;2.00;;;2.00;;
33152;SDS011;19509;43.862;26.176;2022-12-24T15:39:38;1.80;;;1.80;;
33152;SDS011;19509;43.862;26.176;2022-12-24T15:42:05;1.90;;;1.90;;
33152;SDS011;19509;43.862;26.176;2022-12-24T15:44:39;1.60;;;1.60;;
33152;SDS011;19509;43.862;26.176;2022-12-24T15:47:13;1.57;;;1.57;;
33152;SDS011;19509;43.862;26.176;2022-12-24T15:49:42;1.30;;;1.30;;
33152;SDS011;19509;43.862;26.176;2022-12-24T15:52:12;1.90;;;1.90;;
33152;SDS011;19509;43.862;26.176;2022-12-24T15:54:45;1.80;;;1.80;;
33152;SDS011;19509;43.862;26.176;2022-12-24T15:57:32;1.50;;;1.50;;
33152;SDS011;19509;43.862;26.176;2022-12-24T15:59:58;1.40;;;1.40;;
33152;SDS011;19509;43.862;26.176;2022-12-24T16:08:30;1.50;;;1.50;;
33152;SDS011;19509;43.862;26.176;2022-12-24T16:10:42;1.57;;;1.57;;
33152;SDS011;19509;43.862;26.176;2022-12-24T16:15:48;1.40;;;1.40;;
33152;SDS011;19509;43.862;26.176;2022-12-24T16:18:26;1.47;;;1.47;;
33152;SDS011;19509;43.862;26.176;2022-12-24T16:20:56;1.30;;;1.30;;
33152;SDS011;19509;43.862;26.176;2022-12-24T16:23:22;1.40;;;1.40;;
33152;SDS011;19509;43.862;26.176;2022-12-24T16:25:50;1.50;;;1.50;;
33152;SDS011;19509;43.862;26.176;2022-12-24T16:28:19;1.30;;;1.30;;
33152;SDS011;19509;43.862;26.176;2022-12-24T16:30:46;1.60;;;1.60;;
33152;SDS011;19509;43.862;26.176;2022-12-24T16:33:13;1.60;;;1.60;;
33152;SDS011;19509;43.862;26.176;2022-12-24T16:35:40;1.50;;;1.50;;
33152;SDS011;19509;43.862;26.176;2022-12-24T16:38:05;1.67;;;1.67;;
33152;SDS011;19509;43.862;26.176;2022-12-24T16:40:31;1.40;;;1.40;;
33152;SDS011;19509;43.862;26.176;2022-12-24T16:42:56;1.60;;;1.60;;
33152;SDS011;19509;43.862;26.176;2022-12-24T16:45:40;1.30;;;1.30;;
33152;SDS011;19509;43.862;26.176;2022-12-24T16:48:07;1.40;;;1.40;;
33152;SDS011;19509;43.862;26.176;2022-12-24T16:50:36;1.30;;;1.30;;
33152;SDS011;19509;43.862;26.176;2022-12-24T16:53:01;1.40;;;1.40;;
33152;SDS011;19509;43.862;26.176;2022-12-24T16:55:26;1.33;;;1.33;;
33152;SDS011;19509;43.862;26.176;2022-12-24T16:57:52;1.10;;;1.10;;